createdAt,value
2023-01-17T00:01:10.641Z,68.40
2023-01-17T00:03:57.627Z,68.20
2023-01-17T00:07:00.762Z,68.50
2023-01-17T00:09:46.056Z,68.70
2023-01-17T00:12:13.051Z,68.90
2023-01-17T00:14:40.065Z,69.10
2023-01-17T00:17:07.220Z,69.00
2023-01-17T00:19:52.438Z,68.50
2023-01-17T00:22:41.530Z,68.80
2023-01-17T00:25:34.090Z,69.10
2023-01-17T00:28:00.945Z,69.10
2023-01-17T00:30:28.147Z,69.00
2023-01-17T00:32:55.340Z,69.20
2023-01-17T00:35:22.622Z,69.00
2023-01-17T00:37:49.644Z,69.00
2023-01-17T00:40:16.612Z,68.90
2023-01-17T00:42:43.591Z,68.50
2023-01-17T00:45:29.495Z,68.70
2023-01-17T00:48:18.285Z,68.10
2023-01-17T00:51:04.502Z,67.60
2023-01-17T00:53:51.291Z,67.70
2023-01-17T00:56:36.700Z,67.80
2023-01-17T00:59:22.147Z,67.60
2023-01-17T01:02:07.616Z,67.70
2023-01-17T01:04:53.094Z,68.20
2023-01-17T01:07:38.921Z,68.40
2023-01-17T01:10:24.391Z,68.50
2023-01-17T01:13:09.953Z,68.50
2023-01-17T01:15:55.430Z,68.50
2023-01-17T01:18:44.303Z,68.30
2023-01-17T01:21:30.903Z,68.50
2023-01-17T01:24:17.344Z,68.80
2023-01-17T01:27:03.179Z,69.40
2023-01-17T01:29:48.956Z,69.00
2023-01-17T01:32:34.765Z,69.30
2023-01-17T01:35:05.197Z,69.60
2023-01-17T01:37:32.222Z,69.80
2023-01-17T01:40:02.192Z,70.40
2023-01-17T01:42:29.325Z,70.20
2023-01-17T01:44:57.185Z,71.30
2023-01-17T01:47:25.850Z,72.10
2023-01-17T01:49:55.604Z,72.70
2023-01-17T01:52:22.905Z,72.60
2023-01-17T01:54:51.313Z,72.80
2023-01-17T01:57:20.187Z,73.40
2023-01-17T01:59:49.070Z,73.30
2023-01-17T02:02:15.987Z,73.50
2023-01-17T02:04:49.258Z,73.30
2023-01-17T02:07:21.199Z,73.50
2023-01-17T02:09:48.183Z,74.30
2023-01-17T02:12:15.406Z,74.60
2023-01-17T02:14:42.795Z,74.10
2023-01-17T02:17:19.573Z,73.80
2023-01-17T02:19:56.175Z,73.70
2023-01-17T02:22:42.421Z,73.80
2023-01-17T02:25:12.651Z,73.60
2023-01-17T02:27:39.777Z,73.80
2023-01-17T02:30:27.066Z,74.80
2023-01-17T02:33:01.263Z,75.60
2023-01-17T02:35:46.714Z,76.00
2023-01-17T02:38:54.307Z,76.20
2023-01-17T02:41:26.924Z,76.00
2023-01-17T02:43:53.934Z,75.40
2023-01-17T02:46:21.235Z,75.10
2023-01-17T02:48:48.484Z,74.70
2023-01-17T02:51:25.787Z,74.60
2023-01-17T02:53:52.764Z,74.60
2023-01-17T02:56:24.484Z,74.60
2023-01-17T02:58:54.473Z,74.60
2023-01-17T03:01:24.498Z,74.60
2023-01-17T03:03:51.592Z,74.70
2023-01-17T03:06:30.624Z,74.80
2023-01-17T03:08:58.049Z,75.30
2023-01-17T03:11:25.399Z,75.60
2023-01-17T03:13:57.116Z,75.90
2023-01-17T03:16:27.187Z,75.60
2023-01-17T03:18:54.639Z,75.80
2023-01-17T03:21:23.503Z,75.80
2023-01-17T03:23:51.027Z,75.60
2023-01-17T03:26:18.043Z,75.30
2023-01-17T03:28:45.138Z,75.10
2023-01-17T03:31:15.546Z,75.20
2023-01-17T03:33:43.338Z,74.80
2023-01-17T03:36:10.492Z,74.40
2023-01-17T03:38:37.659Z,74.30
2023-01-17T03:41:04.921Z,74.10
2023-01-17T03:43:32.031Z,74.10
2023-01-17T03:46:05.862Z,74.10
2023-01-17T03:48:32.990Z,74.10
2023-01-17T03:51:00.141Z,74.10
2023-01-17T03:53:27.317Z,73.80
2023-01-17T03:55:54.220Z,74.30
2023-01-17T03:58:21.379Z,74.50
2023-01-17T04:00:48.322Z,74.80
2023-01-17T04:03:15.436Z,75.10
2023-01-17T04:05:42.586Z,75.00
2023-01-17T04:08:09.729Z,74.60
2023-01-17T04:10:36.672Z,74.30
2023-01-17T04:13:03.690Z,74.40
2023-01-17T04:15:30.692Z,74.50
2023-01-17T04:17:57.767Z,75.10
2023-01-17T04:20:36.555Z,75.10
2023-01-17T04:23:03.510Z,75.60
2023-01-17T04:25:31.080Z,76.10
2023-01-17T04:27:58.296Z,76.30
2023-01-17T04:30:25.201Z,76.30
2023-01-17T04:32:52.178Z,76.00
2023-01-17T04:35:19.126Z,75.90
2023-01-17T04:37:46.173Z,75.70
2023-01-17T04:40:13.251Z,75.40
2023-01-17T04:42:40.486Z,75.40
2023-01-17T04:45:07.835Z,75.50
2023-01-17T04:47:34.861Z,75.80
2023-01-17T04:50:01.935Z,75.70
2023-01-17T04:52:28.855Z,75.50
2023-01-17T04:54:55.937Z,75.40
2023-01-17T04:57:22.915Z,75.50
2023-01-17T04:59:49.838Z,75.20
2023-01-17T05:02:17.062Z,75.10
2023-01-17T05:04:44.041Z,75.20
2023-01-17T05:07:11.153Z,75.20
2023-01-17T05:09:38.274Z,75.30
2023-01-17T05:12:05.381Z,75.80
2023-01-17T05:14:34.683Z,75.00
2023-01-17T05:17:03.335Z,75.10
2023-01-17T05:19:30.478Z,75.20
2023-01-17T05:22:04.407Z,74.80
2023-01-17T05:24:31.743Z,74.60
2023-01-17T05:27:03.429Z,74.80
2023-01-17T05:29:30.962Z,74.80
2023-01-17T05:31:58.113Z,75.00
2023-01-17T05:34:25.203Z,75.00
2023-01-17T05:36:52.210Z,75.10
2023-01-17T05:39:19.229Z,75.10
2023-01-17T05:41:47.563Z,75.00
2023-01-17T05:44:15.648Z,74.70
2023-01-17T05:46:42.834Z,74.90
2023-01-17T05:49:10.073Z,74.60
2023-01-17T05:51:39.822Z,74.70
2023-01-17T05:54:06.866Z,75.10
2023-01-17T05:56:35.391Z,75.00
2023-01-17T05:59:02.389Z,75.20
2023-01-17T06:01:29.519Z,75.20
2023-01-17T06:03:56.459Z,75.00
2023-01-17T06:06:23.440Z,74.70
2023-01-17T06:08:50.804Z,74.60
2023-01-17T06:11:18.881Z,74.30
2023-01-17T06:13:45.903Z,74.20
2023-01-17T06:16:12.924Z,74.30
2023-01-17T06:18:40.965Z,75.00
2023-01-17T06:21:08.248Z,74.90
2023-01-17T06:23:35.546Z,74.40
2023-01-17T06:26:03.801Z,74.80
2023-01-17T06:28:30.954Z,75.20
2023-01-17T06:30:58.096Z,74.30
2023-01-17T06:33:25.006Z,72.90
2023-01-17T06:35:52.488Z,72.20
2023-01-17T06:38:19.574Z,72.60
2023-01-17T06:40:47.088Z,71.50
2023-01-17T06:43:14.389Z,71.70
2023-01-17T06:45:41.437Z,71.80
2023-01-17T06:48:08.481Z,71.80
2023-01-17T06:50:35.878Z,72.20
2023-01-17T06:53:03.944Z,72.50
2023-01-17T06:55:31.530Z,71.90
2023-01-17T06:57:59.954Z,71.00
2023-01-17T07:00:27.690Z,71.70
2023-01-17T07:02:54.708Z,71.90
2023-01-17T07:05:21.816Z,71.00
2023-01-17T07:07:48.723Z,71.30
2023-01-17T07:10:16.104Z,71.40
2023-01-17T07:12:43.310Z,71.50
2023-01-17T07:15:10.949Z,71.70
2023-01-17T07:17:38.223Z,72.00
2023-01-17T07:20:05.576Z,71.90
2023-01-17T07:22:32.620Z,71.80
2023-01-17T07:24:59.809Z,71.80
2023-01-17T07:27:27.989Z,70.70
2023-01-17T07:29:55.191Z,69.80
2023-01-17T07:32:22.258Z,69.90
2023-01-17T07:34:49.305Z,69.70
2023-01-17T07:37:16.404Z,69.40
2023-01-17T07:39:43.760Z,69.30
2023-01-17T07:42:10.807Z,69.70
2023-01-17T07:44:41.433Z,70.10
2023-01-17T07:47:08.576Z,69.20
2023-01-17T07:49:35.533Z,69.20
2023-01-17T07:52:02.616Z,68.70
2023-01-17T07:54:29.904Z,68.00
2023-01-17T07:56:57.075Z,68.20
2023-01-17T07:59:24.080Z,68.80
2023-01-17T08:01:51.403Z,69.40
2023-01-17T08:04:18.500Z,69.00
2023-01-17T08:06:51.288Z,68.20
2023-01-17T08:09:19.626Z,67.70
2023-01-17T08:11:46.887Z,67.00
2023-01-17T08:14:13.934Z,65.80
2023-01-17T08:16:40.872Z,66.30
2023-01-17T08:19:08.055Z,66.10
2023-01-17T08:21:35.399Z,65.60
2023-01-17T08:24:02.996Z,62.90
2023-01-17T08:26:29.997Z,63.20
2023-01-17T08:29:00.732Z,62.40
2023-01-17T08:31:28.846Z,61.60
2023-01-17T08:33:56.774Z,61.50
2023-01-17T08:36:29.000Z,59.90
2023-01-17T08:38:56.006Z,57.50
2023-01-17T08:41:23.340Z,54.10
2023-01-17T08:43:54.291Z,51.10
2023-01-17T08:46:21.280Z,49.10
2023-01-17T08:48:50.610Z,48.40
2023-01-17T08:51:17.746Z,48.80
2023-01-17T08:53:44.656Z,49.00
2023-01-17T08:56:11.844Z,49.20
2023-01-17T08:58:42.481Z,50.10
2023-01-17T09:01:10.174Z,49.20
2023-01-17T09:03:40.846Z,46.10
2023-01-17T09:06:09.499Z,45.10
2023-01-17T09:17:14.416Z,45.80
2023-01-17T09:19:46.815Z,45.50
2023-01-17T09:22:13.980Z,44.80
2023-01-17T09:24:41.709Z,45.80
2023-01-17T09:27:08.770Z,46.40
2023-01-17T09:29:35.811Z,46.90
2023-01-17T09:32:05.607Z,46.90
2023-01-17T09:34:32.553Z,46.30
2023-01-17T09:37:02.605Z,45.20
2023-01-17T09:39:30.707Z,44.10
2023-01-17T09:42:09.804Z,43.00
2023-01-17T09:44:37.118Z,44.00
2023-01-17T09:47:07.445Z,45.00
2023-01-17T09:49:40.359Z,45.90
2023-01-17T09:57:28.423Z,46.20
2023-01-17T10:00:19.558Z,45.70
2023-01-17T10:02:52.544Z,44.50
2023-01-17T10:05:19.912Z,44.00
2023-01-17T10:08:06.088Z,44.50
2023-01-17T10:10:43.036Z,45.40
2023-01-17T10:13:13.703Z,46.40
2023-01-17T10:15:42.930Z,47.40
2023-01-17T10:18:30.687Z,47.90
2023-01-17T10:20:57.667Z,48.50
2023-01-17T10:23:32.081Z,49.70
2023-01-17T10:26:02.986Z,50.60
2023-01-17T10:28:48.445Z,51.30
2023-01-17T10:31:32.368Z,50.90
2023-01-17T10:34:06.012Z,50.80
2023-01-17T10:36:37.340Z,50.10
2023-01-17T10:39:15.615Z,49.70
2023-01-17T10:41:46.511Z,49.20
2023-01-17T10:44:32.403Z,48.00
2023-01-17T10:47:07.669Z,48.00
2023-01-17T10:49:34.769Z,47.90
2023-01-17T10:52:14.585Z,48.60
2023-01-17T10:54:57.055Z,48.80
2023-01-17T10:57:26.561Z,49.50
2023-01-17T10:59:56.692Z,49.50
2023-01-17T11:05:12.375Z,50.30
2023-01-17T11:07:42.989Z,50.90
2023-01-17T11:10:15.440Z,50.70
2023-01-17T11:12:47.798Z,51.00
2023-01-17T11:15:20.078Z,50.30
2023-01-17T11:17:49.112Z,50.20
2023-01-17T11:20:17.963Z,49.60
2023-01-17T11:22:46.361Z,49.50
2023-01-17T11:25:20.532Z,46.30
2023-01-17T11:27:57.935Z,44.00
2023-01-17T11:30:29.530Z,43.10
2023-01-17T11:33:07.286Z,42.30
2023-01-17T11:35:34.775Z,41.60
2023-01-17T11:38:05.173Z,41.10
2023-01-17T11:40:47.237Z,41.40
2023-01-17T11:43:24.024Z,42.20
2023-01-17T11:46:12.335Z,42.10
2023-01-17T11:48:43.640Z,42.80
2023-01-17T11:51:27.172Z,43.70
2023-01-17T11:54:16.924Z,44.10
2023-01-17T11:56:50.967Z,45.00
2023-01-17T11:59:28.440Z,45.30
2023-01-17T12:02:17.277Z,45.50
2023-01-17T12:04:55.469Z,46.00
2023-01-17T12:07:41.418Z,46.00
2023-01-17T12:10:21.687Z,46.20
2023-01-17T12:13:26.589Z,46.10
2023-01-17T12:16:22.300Z,46.40
2023-01-17T12:19:09.979Z,45.50
2023-01-17T12:21:44.541Z,45.80
2023-01-17T12:24:30.499Z,43.70
2023-01-17T12:26:57.960Z,41.70
2023-01-17T12:29:31.057Z,41.10
2023-01-17T12:32:16.769Z,40.40
2023-01-17T12:35:08.699Z,40.30
2023-01-17T12:38:11.423Z,40.80
2023-01-17T12:41:01.449Z,41.50
2023-01-17T12:43:37.701Z,42.40
2023-01-17T12:46:06.853Z,43.30
2023-01-17T12:48:37.847Z,44.70
2023-01-17T12:51:28.199Z,44.90
2023-01-17T12:53:55.405Z,44.80
2023-01-17T12:56:24.753Z,41.70
2023-01-17T13:01:43.545Z,40.70
2023-01-17T13:04:30.410Z,41.30
2023-01-17T13:09:47.213Z,43.20
2023-01-17T13:12:15.362Z,43.60
2023-01-17T13:14:43.221Z,44.60
2023-01-17T13:17:30.736Z,44.90
2023-01-17T13:19:59.880Z,45.20
2023-01-17T13:22:27.530Z,45.90
2023-01-17T13:25:06.927Z,46.70
2023-01-17T13:27:51.456Z,47.10
2023-01-17T13:30:31.036Z,46.70
2023-01-17T13:38:42.977Z,47.90
2023-01-17T14:07:30.047Z,47.20
2023-01-17T14:09:57.337Z,47.40
2023-01-17T14:12:31.368Z,47.70
2023-01-17T14:15:01.617Z,47.80
2023-01-17T14:17:35.358Z,47.30
2023-01-17T14:20:05.625Z,47.80
2023-01-17T14:22:37.168Z,47.50
2023-01-17T14:25:11.026Z,47.90
2023-01-17T14:27:54.928Z,48.50
2023-01-17T14:30:26.299Z,48.60
2023-01-17T14:33:01.246Z,48.50
2023-01-17T14:35:41.297Z,48.70
2023-01-17T14:38:15.438Z,49.20
2023-01-17T14:40:48.208Z,49.10
2023-01-17T14:43:22.048Z,49.40
2023-01-17T14:45:50.506Z,49.50
2023-01-17T14:48:21.498Z,50.10
2023-01-17T14:50:49.126Z,50.00
2023-01-17T14:53:17.482Z,50.10
2023-01-17T14:55:47.331Z,50.00
2023-01-17T14:58:41.633Z,50.20
2023-01-17T15:01:12.794Z,50.10
2023-01-17T15:03:57.778Z,50.20
2023-01-17T15:06:25.944Z,49.10
2023-01-17T15:09:11.600Z,49.10
2023-01-17T15:11:38.929Z,49.50
2023-01-17T15:14:06.205Z,49.40
2023-01-17T15:16:34.289Z,49.70
2023-01-17T15:19:01.385Z,49.60
2023-01-17T15:21:28.967Z,49.40
2023-01-17T15:23:57.120Z,49.40
2023-01-17T15:26:25.118Z,49.50
2023-01-17T15:28:53.136Z,49.50
2023-01-17T15:31:38.251Z,49.60
2023-01-17T15:34:09.683Z,49.20
2023-01-17T15:36:37.047Z,49.70
2023-01-17T15:39:05.263Z,49.70
2023-01-17T15:41:35.813Z,50.20
2023-01-17T15:44:03.034Z,49.80
2023-01-17T15:46:31.492Z,50.20
2023-01-17T15:49:09.171Z,50.20
2023-01-17T15:51:37.279Z,50.80
2023-01-17T15:54:23.231Z,50.00
2023-01-17T15:57:03.920Z,50.10
2023-01-17T15:59:30.991Z,50.20
2023-01-17T16:01:58.427Z,50.70
2023-01-17T16:04:26.778Z,50.90
2023-01-17T16:06:53.689Z,50.80
2023-01-17T16:09:21.602Z,50.70
2023-01-17T16:11:48.877Z,51.00
2023-01-17T16:14:16.046Z,50.80
2023-01-17T16:16:49.681Z,50.90
2023-01-17T16:19:17.132Z,51.10
2023-01-17T16:21:45.862Z,51.00
2023-01-17T16:24:12.971Z,51.50
2023-01-17T16:26:40.043Z,51.60
2023-01-17T16:29:09.062Z,52.10
2023-01-17T16:31:36.161Z,52.50
2023-01-17T16:34:03.157Z,52.60
2023-01-17T16:36:34.259Z,52.80
2023-01-17T16:39:01.144Z,53.30
2023-01-17T16:41:29.490Z,53.70
2023-01-17T16:43:57.272Z,53.60
2023-01-17T16:46:26.110Z,53.70
2023-01-17T16:48:53.274Z,53.80
2023-01-17T16:51:20.244Z,54.00
2023-01-17T16:53:47.315Z,54.00
2023-01-17T16:56:16.749Z,54.20
2023-01-17T16:58:43.869Z,54.10
2023-01-17T17:01:11.696Z,54.00
2023-01-17T17:03:38.759Z,54.10
2023-01-17T17:06:07.251Z,54.00
2023-01-17T17:08:35.221Z,53.70
2023-01-17T17:11:15.481Z,54.30
2023-01-17T17:13:46.073Z,54.50
2023-01-17T17:16:34.207Z,54.60
2023-01-17T17:19:06.350Z,54.80
2023-01-17T17:21:34.151Z,55.00
2023-01-17T17:24:01.325Z,54.80
2023-01-17T17:26:31.657Z,54.90
2023-01-17T17:28:59.006Z,54.90
2023-01-17T17:31:26.260Z,55.20
2023-01-17T17:33:53.361Z,55.40
2023-01-17T17:36:20.464Z,55.50
2023-01-17T17:38:53.767Z,55.60
2023-01-17T17:41:24.004Z,55.70
2023-01-17T17:43:52.363Z,55.40
2023-01-17T17:46:20.921Z,55.50
2023-01-17T17:48:48.213Z,55.50
2023-01-17T17:51:24.383Z,55.30
2023-01-17T17:53:52.887Z,55.50
2023-01-17T17:56:20.694Z,55.70
2023-01-17T17:58:48.026Z,56.10
2023-01-17T18:01:15.633Z,56.50
2023-01-17T18:03:42.799Z,56.80
2023-01-17T18:06:11.108Z,56.90
2023-01-17T18:08:38.660Z,57.30
2023-01-17T18:11:06.882Z,57.30
2023-01-17T18:13:34.411Z,57.40
2023-01-17T18:16:07.206Z,57.40
2023-01-17T18:18:35.074Z,57.30
2023-01-17T18:21:23.863Z,57.50
2023-01-17T18:24:06.759Z,57.30
2023-01-17T18:26:42.951Z,57.40
2023-01-17T18:29:11.316Z,57.50
2023-01-17T18:31:38.489Z,57.60
2023-01-17T18:34:06.572Z,57.50
2023-01-17T18:36:35.025Z,57.50
2023-01-17T18:39:02.472Z,57.60
2023-01-17T18:41:29.916Z,57.80
2023-01-17T18:43:57.240Z,57.80
2023-01-17T18:46:25.997Z,58.00
2023-01-17T18:48:53.481Z,57.90
2023-01-17T18:51:22.119Z,58.00
2023-01-17T18:53:49.325Z,57.90
2023-01-17T18:56:17.936Z,57.80
2023-01-17T18:58:45.448Z,57.70
2023-01-17T19:01:16.462Z,57.60
2023-01-17T19:03:44.587Z,57.50
2023-01-17T19:06:13.065Z,57.40
2023-01-17T19:08:40.381Z,57.20
2023-01-17T19:11:07.543Z,57.30
2023-01-17T19:13:35.924Z,57.20
2023-01-17T19:16:03.996Z,57.30
2023-01-17T19:18:31.179Z,57.20
2023-01-17T19:21:08.274Z,57.00
2023-01-17T19:23:35.929Z,57.10
2023-01-17T19:26:03.581Z,57.30
2023-01-17T19:28:31.562Z,57.10
2023-01-17T19:31:02.803Z,57.30
2023-01-17T19:33:30.008Z,57.20
2023-01-17T19:36:01.079Z,56.90
2023-01-17T19:38:28.345Z,56.90
2023-01-17T19:40:55.493Z,56.60
2023-01-17T19:43:25.001Z,56.50
2023-01-17T19:45:55.917Z,56.50
2023-01-17T19:48:23.092Z,56.50
2023-01-17T19:50:50.231Z,56.60
2023-01-17T19:53:17.311Z,56.60
2023-01-17T19:55:44.225Z,56.50
2023-01-17T19:58:13.095Z,56.60
2023-01-17T20:00:46.540Z,56.70
2023-01-17T20:03:13.833Z,56.70
2023-01-17T20:05:40.834Z,56.70
2023-01-17T20:08:09.990Z,56.80
2023-01-17T20:10:36.980Z,57.10
2023-01-17T20:13:04.864Z,57.20
2023-01-17T20:15:33.762Z,57.30
2023-01-17T20:18:02.192Z,57.40
2023-01-17T20:20:32.641Z,57.40
2023-01-17T20:23:01.554Z,57.30
2023-01-17T20:25:29.790Z,57.20
2023-01-17T20:28:09.305Z,57.30
2023-01-17T20:34:01.338Z,57.60
2023-01-17T20:36:30.245Z,57.70
2023-01-17T20:38:57.631Z,58.00
2023-01-17T20:41:54.318Z,58.10
2023-01-17T20:44:21.519Z,58.70
2023-01-17T20:46:48.669Z,60.00
2023-01-17T20:49:16.656Z,61.40
2023-01-17T20:51:44.781Z,64.00
2023-01-17T20:54:14.344Z,65.50
2023-01-17T20:56:41.748Z,67.80
2023-01-17T20:59:09.899Z,69.50
2023-01-17T21:01:37.377Z,70.70
2023-01-17T21:04:04.650Z,72.10
2023-01-17T21:06:31.771Z,72.60
2023-01-17T21:09:00.141Z,73.50
2023-01-17T21:11:28.184Z,73.70
2023-01-17T21:13:55.318Z,74.20
2023-01-17T21:16:23.321Z,74.80
2023-01-17T21:18:50.722Z,75.60
2023-01-17T21:21:18.606Z,75.90
2023-01-17T21:23:45.881Z,76.60
2023-01-17T21:26:13.528Z,77.30
2023-01-17T21:28:42.852Z,78.20
2023-01-17T21:31:23.755Z,78.80
2023-01-17T21:33:54.081Z,78.80
2023-01-17T21:36:21.786Z,77.30
2023-01-17T21:38:49.934Z,78.30
2023-01-17T21:41:17.183Z,78.20
2023-01-17T21:43:44.400Z,78.20
2023-01-17T21:46:11.805Z,74.90
2023-01-17T21:48:40.861Z,73.70
2023-01-17T21:51:08.221Z,73.40
2023-01-17T21:53:35.838Z,73.00
2023-01-17T21:56:21.940Z,73.20
2023-01-17T21:58:53.714Z,71.50
2023-01-17T22:01:24.255Z,72.00
2023-01-17T22:03:52.420Z,72.00
2023-01-17T22:06:19.969Z,72.40
2023-01-17T22:08:47.074Z,72.90
2023-01-17T22:11:14.848Z,71.30
2023-01-17T22:13:42.613Z,71.30
2023-01-17T22:16:11.523Z,71.80
2023-01-17T22:18:39.357Z,71.60
2023-01-17T22:21:07.372Z,71.70
2023-01-17T22:23:34.869Z,71.60
2023-01-17T22:26:06.149Z,70.90
2023-01-17T22:28:33.498Z,70.40
2023-01-17T22:31:09.331Z,70.30
2023-01-17T22:33:37.193Z,69.90
2023-01-17T22:36:04.864Z,69.50
2023-01-17T22:38:32.247Z,69.40
2023-01-17T22:41:08.085Z,69.40
2023-01-17T22:43:36.158Z,69.80
2023-01-17T22:46:03.825Z,70.30
2023-01-17T22:48:32.151Z,70.10
2023-01-17T22:51:02.023Z,70.50
2023-01-17T22:53:29.347Z,70.00
2023-01-17T22:56:02.833Z,69.80
2023-01-17T22:58:29.986Z,69.20
2023-01-17T23:01:04.154Z,69.30
2023-01-17T23:03:31.453Z,69.00
2023-01-17T23:06:06.980Z,69.40
2023-01-17T23:08:34.140Z,67.50
2023-01-17T23:11:21.552Z,67.30
2023-01-17T23:13:48.812Z,67.00
2023-01-17T23:16:34.721Z,67.30
2023-01-17T23:19:20.815Z,66.50
2023-01-17T23:22:10.869Z,64.70
2023-01-17T23:24:45.292Z,64.30
2023-01-17T23:27:31.524Z,64.30
2023-01-17T23:29:58.524Z,64.30
2023-01-17T23:32:25.691Z,63.50
2023-01-17T23:34:52.864Z,62.70
2023-01-17T23:37:20.173Z,63.00
2023-01-17T23:39:47.144Z,62.80
2023-01-17T23:42:32.725Z,62.20
2023-01-17T23:45:00.517Z,62.20
2023-01-17T23:47:27.772Z,61.60
2023-01-17T23:49:54.916Z,61.20
2023-01-17T23:52:21.887Z,60.90
2023-01-17T23:54:49.072Z,61.10
2023-01-17T23:57:16.137Z,60.50
2023-01-17T23:59:43.166Z,60.50
